WAOO/BDJ METAR and TAF weather

Enter ICAO airport designator
Station Type Date Time Source
WAOO METAR 2021/07/30 07:30 UTC NOAA

WAOO 300730Z 26006KT 9999 SCT017 33/24 Q1008 NOSIG


Station Type Date Time Source
WAOO Decoded METAR 2021/07/30 07:30 UTC NOAA

Station name not available
Jul 30, 2021 - 03:30 AM EDT / 2021.07.30 0730 UTC
Wind: from the W (260 degrees) at 7 MPH (6 KT):0
Visibility: greater than 7 mile(s):0
Sky conditions: partly cloudy
Temperature: 91 F (33 C)
Heat index: 101.5 F (38.6 C):1
Dew Point: 75 F (24 C)
Relative Humidity: 59%
Pressure (altimeter): 29.77 in. Hg (1008 hPa)
ob: WAOO 300730Z 26006KT 9999 SCT017 33/24 Q1008 NOSIG
cycle: 7

Station Type Date Time Source
WAOO TAF 2021/07/30 06:50 UTC NOAA

TAF WAOO 300500Z 3006/3106 15007KT 9999 SCT018=

Example: see airport list